AAL1741 KRNO-KPHX
Flight info
| Callsign | AAL1741 |
|---|---|
| Flight time | N/A |
| Altitude | 37000 |
| Route | ZEFFR9 PESKE SHUFL Q13 PRFUM WOTRO BRUSR1 |
| Aircraft | B738/M-SDE2E3FGHIRWXY/LB1 |
Departure
| Time | 2026-05-05 21:53 |
|---|---|
| Airport | Reno Tahoe International Airport (KRNO) |
Arrival
| Time | N/A |
|---|---|
| Airport | Phoenix Sky Harbor International Airport (KPHX) |
| Time | Latitude | Longitude | Altitude | Speed | Heading |
|---|---|---|---|---|---|
| 2026-05-05 21:30 | 39.50746 | -119.77249 | 4422 ft | 0 kts | 213° |
| 2026-05-05 21:38 | 39.50755 | -119.77241 | 4423 ft | 2 kts | 213° |
| 2026-05-05 21:38 | 39.50766 | -119.77232 | 4423 ft | 0 kts | 213° |
| 2026-05-05 21:38 | 39.50779 | -119.77225 | 4423 ft | 2 kts | 180° |
| 2026-05-05 21:39 | 39.50795 | -119.77230 | 4423 ft | 2 kts | 142° |
| 2026-05-05 21:39 | 39.50805 | -119.77247 | 4423 ft | 2 kts | 105° |
| 2026-05-05 21:39 | 39.50806 | -119.77258 | 4423 ft | 1 kts | 85° |
| 2026-05-05 21:39 | 39.50805 | -119.77264 | 4423 ft | 0 kts | 89° |
| 2026-05-05 21:45 | 39.50805 | -119.77258 | 4423 ft | 3 kts | 89° |
| 2026-05-05 21:46 | 39.50807 | -119.77212 | 4423 ft | 0 kts | 86° |
| 2026-05-05 21:46 | 39.50808 | -119.77193 | 4423 ft | 0 kts | 85° |
| 2026-05-05 21:46 | 39.50808 | -119.77190 | 4423 ft | 2 kts | 85° |
| 2026-05-05 21:47 | 39.50810 | -119.77163 | 4423 ft | 0 kts | 85° |
| 2026-05-05 21:47 | 39.50810 | -119.77160 | 4423 ft | 0 kts | 85° |
| 2026-05-05 21:50 | 39.50810 | -119.77159 | 4423 ft | 0 kts | 85° |
| 2026-05-05 21:50 | 39.50808 | -119.77132 | 4423 ft | 4 kts | 97° |
| 2026-05-05 21:50 | 39.50844 | -119.77068 | 4423 ft | 13 kts | 13° |
| 2026-05-05 21:51 | 39.50933 | -119.77068 | 4423 ft | 12 kts | 359° |
| 2026-05-05 21:51 | 39.51031 | -119.77068 | 4424 ft | 20 kts | 0° |
| 2026-05-05 21:51 | 39.51196 | -119.77067 | 4425 ft | 23 kts | 359° |
| 2026-05-05 21:51 | 39.51345 | -119.77067 | 4425 ft | 16 kts | 16° |
| 2026-05-05 21:52 | 39.51375 | -119.76789 | 4425 ft | 15 kts | 90° |
| 2026-05-05 21:52 | 39.51338 | -119.76678 | 4424 ft | 11 kts | 163° |
| 2026-05-05 21:52 | 39.51276 | -119.76676 | 4424 ft | 8 kts | 180° |
| 2026-05-05 21:53 | 39.51081 | -119.76676 | 4422 ft | 62 kts | 180° |
| 2026-05-05 21:53 | 39.50396 | -119.76677 | 4417 ft | 131 kts | 180° |
| 2026-05-05 21:53 | 39.49279 | -119.76681 | 4604 ft | 170 kts | 180° |
| 2026-05-05 21:53 | 39.48159 | -119.76688 | 5472 ft | 160 kts | 181° |
| 2026-05-05 21:54 | 39.46995 | -119.76757 | 6077 ft | 174 kts | 184° |
| 2026-05-05 21:54 | 39.45766 | -119.76853 | 6552 ft | 186 kts | 183° |
| 2026-05-05 21:54 | 39.44407 | -119.76938 | 7001 ft | 201 kts | 182° |
| 2026-05-05 21:54 | 39.42965 | -119.76981 | 7370 ft | 222 kts | 180° |
| 2026-05-05 21:55 | 39.41373 | -119.76965 | 7868 ft | 237 kts | 179° |
| 2026-05-05 21:55 | 39.39644 | -119.76962 | 8358 ft | 255 kts | 179° |
| 2026-05-05 21:55 | 39.37837 | -119.76975 | 8902 ft | 270 kts | 179° |
| 2026-05-05 21:55 | 39.35900 | -119.76984 | 9430 ft | 286 kts | 179° |
| 2026-05-05 21:56 | 39.33842 | -119.76901 | 9916 ft | 302 kts | 172° |
| 2026-05-05 21:56 | 39.31809 | -119.76166 | 10413 ft | 313 kts | 149° |
| 2026-05-05 21:56 | 39.30084 | -119.74422 | 10939 ft | 320 kts | 130° |
| 2026-05-05 21:56 | 39.28569 | -119.72240 | 11446 ft | 334 kts | 126° |
| 2026-05-05 21:57 | 39.27019 | -119.69896 | 11939 ft | 350 kts | 126° |
| 2026-05-05 21:57 | 39.25407 | -119.67484 | 12451 ft | 365 kts | 126° |
| 2026-05-05 21:57 | 39.23700 | -119.64980 | 13016 ft | 378 kts | 127° |
| 2026-05-05 21:57 | 39.21943 | -119.62444 | 13924 ft | 380 kts | 127° |
| 2026-05-05 21:58 | 39.20196 | -119.59944 | 14861 ft | 381 kts | 127° |
| 2026-05-05 21:58 | 39.18404 | -119.57378 | 15687 ft | 386 kts | 127° |
| 2026-05-05 21:58 | 39.16620 | -119.54824 | 16557 ft | 389 kts | 127° |
| 2026-05-05 21:58 | 39.14807 | -119.52251 | 17347 ft | 395 kts | 128° |
| 2026-05-05 21:59 | 39.12868 | -119.49698 | 18161 ft | 400 kts | 130° |
| 2026-05-05 21:59 | 39.10876 | -119.47232 | 18986 ft | 403 kts | 131° |
| 2026-05-05 21:59 | 39.08832 | -119.44752 | 19728 ft | 408 kts | 131° |
| 2026-05-05 21:59 | 39.06753 | -119.42227 | 20530 ft | 411 kts | 130° |
| 2026-05-05 22:00 | 39.04673 | -119.39689 | 21237 ft | 415 kts | 130° |
| 2026-05-05 22:00 | 39.02590 | -119.37135 | 21967 ft | 417 kts | 130° |
| 2026-05-05 22:00 | 39.00494 | -119.34557 | 22682 ft | 420 kts | 130° |
| 2026-05-05 22:00 | 38.98357 | -119.31924 | 23291 ft | 425 kts | 130° |
| 2026-05-05 22:01 | 38.96213 | -119.29282 | 24019 ft | 427 kts | 129° |
| 2026-05-05 22:01 | 38.94073 | -119.26642 | 24569 ft | 433 kts | 129° |
| 2026-05-05 22:01 | 38.91900 | -119.23957 | 25192 ft | 436 kts | 129° |
| 2026-05-05 22:01 | 38.89708 | -119.21255 | 25759 ft | 440 kts | 129° |
| 2026-05-05 22:02 | 38.87485 | -119.18516 | 26408 ft | 442 kts | 128° |
| 2026-05-05 22:02 | 38.85269 | -119.15789 | 26975 ft | 444 kts | 128° |
| 2026-05-05 22:02 | 38.83021 | -119.13021 | 27460 ft | 449 kts | 128° |
| 2026-05-05 22:02 | 38.80791 | -119.10278 | 28002 ft | 452 kts | 128° |
| 2026-05-05 22:03 | 38.78500 | -119.07467 | 28571 ft | 453 kts | 128° |
| 2026-05-05 22:03 | 38.76259 | -119.04681 | 29149 ft | 453 kts | 126° |
| 2026-05-05 22:03 | 38.74089 | -119.01758 | 29675 ft | 452 kts | 123° |
| 2026-05-05 22:03 | 38.71993 | -118.98747 | 30222 ft | 451 kts | 122° |
| 2026-05-05 22:04 | 38.69975 | -118.95774 | 30948 ft | 447 kts | 121° |
| 2026-05-05 22:04 | 38.67960 | -118.92790 | 31674 ft | 443 kts | 121° |
| 2026-05-05 22:04 | 38.65942 | -118.89803 | 32178 ft | 444 kts | 121° |
| 2026-05-05 22:04 | 38.63908 | -118.86807 | 32737 ft | 444 kts | 121° |
| 2026-05-05 22:05 | 38.61908 | -118.83886 | 33350 ft | 442 kts | 121° |
| 2026-05-05 22:05 | 38.59878 | -118.80937 | 33911 ft | 440 kts | 121° |
| 2026-05-05 22:05 | 38.57871 | -118.78030 | 34417 ft | 438 kts | 121° |
| 2026-05-05 22:05 | 38.55834 | -118.75089 | 34724 ft | 440 kts | 121° |
| 2026-05-05 22:06 | 38.53807 | -118.72167 | 34999 ft | 443 kts | 121° |
| 2026-05-05 22:06 | 38.51766 | -118.69234 | 35332 ft | 443 kts | 121° |
| 2026-05-05 22:06 | 38.49719 | -118.66297 | 35706 ft | 442 kts | 122° |
| 2026-05-05 22:06 | 38.47652 | -118.63344 | 36058 ft | 442 kts | 122° |
| 2026-05-05 22:07 | 38.45572 | -118.60377 | 36366 ft | 445 kts | 123° |
| 2026-05-05 22:07 | 38.43494 | -118.57411 | 36624 ft | 448 kts | 123° |
| 2026-05-05 22:07 | 38.41385 | -118.54405 | 36973 ft | 447 kts | 123° |
| 2026-05-05 22:08 | 38.37210 | -118.48467 | 37026 ft | 444 kts | 123° |
| 2026-05-05 22:08 | 38.33065 | -118.42593 | 37026 ft | 443 kts | 123° |
| 2026-05-05 22:09 | 38.28895 | -118.36674 | 37021 ft | 444 kts | 123° |
| 2026-05-05 22:09 | 38.24749 | -118.30802 | 37009 ft | 444 kts | 124° |
| 2026-05-05 22:10 | 38.20617 | -118.24966 | 37012 ft | 444 kts | 124° |
| 2026-05-05 22:10 | 38.16499 | -118.19162 | 37010 ft | 443 kts | 124° |
| 2026-05-05 22:11 | 38.12379 | -118.13363 | 37009 ft | 444 kts | 124° |
| 2026-05-05 22:11 | 38.08245 | -118.07555 | 37007 ft | 443 kts | 124° |
| 2026-05-05 22:12 | 38.04146 | -118.01800 | 36996 ft | 444 kts | 124° |
| 2026-05-05 22:12 | 38.00004 | -117.96003 | 36991 ft | 444 kts | 124° |
| 2026-05-05 22:13 | 37.95888 | -117.90256 | 36991 ft | 442 kts | 124° |
| 2026-05-05 22:13 | 37.91754 | -117.84492 | 36988 ft | 442 kts | 124° |
| 2026-05-05 22:14 | 37.87609 | -117.78719 | 36974 ft | 445 kts | 124° |
| 2026-05-05 22:14 | 37.83448 | -117.72943 | 37002 ft | 444 kts | 125° |
| 2026-05-05 22:15 | 37.79281 | -117.67217 | 36985 ft | 444 kts | 126° |
| 2026-05-05 22:15 | 37.74625 | -117.61904 | 37000 ft | 454 kts | 134° |
| 2026-05-05 22:16 | 37.69652 | -117.57039 | 36997 ft | 454 kts | 135° |
| 2026-05-05 22:16 | 37.64630 | -117.52234 | 37001 ft | 454 kts | 135° |
| 2026-05-05 22:17 | 37.59619 | -117.47405 | 36993 ft | 454 kts | 135° |
| 2026-05-05 22:17 | 37.54621 | -117.42562 | 36989 ft | 453 kts | 135° |
| 2026-05-05 22:18 | 37.49652 | -117.37733 | 36995 ft | 455 kts | 135° |
| 2026-05-05 22:18 | 37.44616 | -117.32838 | 36989 ft | 458 kts | 136° |
| 2026-05-05 22:19 | 37.39609 | -117.27982 | 37000 ft | 457 kts | 136° |
| 2026-05-05 22:19 | 37.34586 | -117.23159 | 36985 ft | 454 kts | 137° |
| 2026-05-05 22:20 | 37.29534 | -117.18375 | 36979 ft | 457 kts | 137° |
| 2026-05-05 22:20 | 37.24372 | -117.13680 | 36982 ft | 460 kts | 140° |
| 2026-05-05 22:21 | 37.19091 | -117.09244 | 36983 ft | 456 kts | 141° |
| 2026-05-05 22:21 | 37.13765 | -117.04841 | 36978 ft | 460 kts | 141° |
| 2026-05-05 22:22 | 37.08430 | -117.00406 | 36962 ft | 461 kts | 141° |
| 2026-05-05 22:22 | 37.03101 | -116.95966 | 36972 ft | 461 kts | 141° |
| 2026-05-05 22:23 | 36.97790 | -116.91534 | 37092 ft | 460 kts | 141° |
| 2026-05-05 22:23 | 36.92508 | -116.87125 | 37020 ft | 456 kts | 141° |
| 2026-05-05 22:24 | 36.87253 | -116.82740 | 36957 ft | 457 kts | 141° |
| 2026-05-05 22:24 | 36.81913 | -116.78281 | 36945 ft | 462 kts | 141° |
| 2026-05-05 22:25 | 36.76565 | -116.73824 | 36941 ft | 460 kts | 142° |
| 2026-05-05 22:25 | 36.71204 | -116.69367 | 36929 ft | 460 kts | 142° |
| 2026-05-05 22:26 | 36.65878 | -116.64945 | 36929 ft | 462 kts | 142° |
| 2026-05-05 22:26 | 36.61104 | -116.59774 | 36930 ft | 454 kts | 125° |
| 2026-05-05 22:27 | 36.57853 | -116.53151 | 36920 ft | 449 kts | 114° |
| 2026-05-05 22:27 | 36.55081 | -116.46175 | 36939 ft | 449 kts | 112° |
| 2026-05-05 22:28 | 36.52388 | -116.39222 | 36924 ft | 447 kts | 112° |
| 2026-05-05 22:28 | 36.49642 | -116.32220 | 36922 ft | 452 kts | 114° |
| 2026-05-05 22:29 | 36.46848 | -116.25198 | 36918 ft | 451 kts | 114° |
| 2026-05-05 22:29 | 36.44056 | -116.18237 | 36930 ft | 455 kts | 114° |
| 2026-05-05 22:30 | 36.41232 | -116.11231 | 36938 ft | 456 kts | 115° |
| 2026-05-05 22:30 | 36.38386 | -116.04174 | 36940 ft | 456 kts | 115° |
| 2026-05-05 22:31 | 36.35538 | -115.97147 | 36938 ft | 456 kts | 115° |
| 2026-05-05 22:31 | 36.32688 | -115.90136 | 36941 ft | 458 kts | 115° |
| 2026-05-05 22:32 | 36.29819 | -115.83097 | 36951 ft | 458 kts | 115° |
| 2026-05-05 22:32 | 36.26959 | -115.76081 | 36938 ft | 456 kts | 115° |
| 2026-05-05 22:33 | 36.24088 | -115.69057 | 36922 ft | 458 kts | 115° |
| 2026-05-05 22:33 | 36.21219 | -115.62045 | 36912 ft | 459 kts | 116° |
| 2026-05-05 22:34 | 36.18321 | -115.54977 | 36918 ft | 461 kts | 116° |
| 2026-05-05 22:34 | 36.15412 | -115.47908 | 36935 ft | 463 kts | 116° |
| 2026-05-05 22:35 | 36.12505 | -115.40851 | 36939 ft | 462 kts | 116° |
| 2026-05-05 22:35 | 36.09581 | -115.33768 | 36938 ft | 463 kts | 117° |
| 2026-05-05 22:36 | 36.06631 | -115.26646 | 36906 ft | 464 kts | 117° |
| 2026-05-05 22:36 | 36.03697 | -115.19573 | 36881 ft | 463 kts | 117° |
| 2026-05-05 22:37 | 36.00770 | -115.12531 | 36894 ft | 462 kts | 118° |
| 2026-05-05 22:37 | 35.97823 | -115.05467 | 36891 ft | 463 kts | 118° |
| 2026-05-05 22:38 | 35.94876 | -114.98421 | 36886 ft | 462 kts | 118° |
| 2026-05-05 22:38 | 35.91908 | -114.91336 | 36884 ft | 464 kts | 118° |
| 2026-05-05 22:39 | 35.88956 | -114.84294 | 36883 ft | 466 kts | 118° |
| 2026-05-05 22:39 | 35.85959 | -114.77157 | 36888 ft | 466 kts | 118° |
| 2026-05-05 22:40 | 35.82983 | -114.70088 | 36876 ft | 469 kts | 118° |
| 2026-05-05 22:40 | 35.79976 | -114.62957 | 36877 ft | 469 kts | 118° |
| 2026-05-05 22:41 | 35.76978 | -114.55862 | 36886 ft | 471 kts | 119° |
| 2026-05-05 22:41 | 35.73955 | -114.48733 | 36902 ft | 470 kts | 119° |
| 2026-05-05 22:42 | 35.70938 | -114.41635 | 36914 ft | 470 kts | 119° |
| 2026-05-05 22:42 | 35.67900 | -114.34499 | 36915 ft | 472 kts | 120° |
| 2026-05-05 22:43 | 35.64854 | -114.27366 | 36921 ft | 472 kts | 120° |
| 2026-05-05 22:43 | 35.61816 | -114.20270 | 36926 ft | 472 kts | 120° |
| 2026-05-05 22:44 | 35.58762 | -114.13148 | 36925 ft | 473 kts | 121° |
| 2026-05-05 22:44 | 35.55701 | -114.06020 | 36918 ft | 472 kts | 120° |
| 2026-05-05 22:45 | 35.52620 | -113.98867 | 36926 ft | 476 kts | 121° |
| 2026-05-05 22:45 | 35.49479 | -113.91766 | 36930 ft | 473 kts | 124° |
| 2026-05-05 22:46 | 35.45936 | -113.85009 | 36944 ft | 471 kts | 127° |
| 2026-05-05 22:46 | 35.42271 | -113.78426 | 36953 ft | 471 kts | 128° |
| 2026-05-05 22:47 | 35.38578 | -113.71789 | 36960 ft | 471 kts | 128° |
| 2026-05-05 22:47 | 35.35014 | -113.65319 | 36962 ft | 472 kts | 127° |
| 2026-05-05 22:48 | 35.31347 | -113.58614 | 36968 ft | 472 kts | 127° |
| 2026-05-05 22:48 | 35.27718 | -113.51965 | 36811 ft | 468 kts | 127° |
| 2026-05-05 22:48 | 35.25943 | -113.48707 | 36465 ft | 462 kts | 128° |
| 2026-05-05 22:49 | 35.24155 | -113.45425 | 35948 ft | 461 kts | 128° |
| 2026-05-05 22:49 | 35.22389 | -113.42194 | 35287 ft | 464 kts | 128° |
| 2026-05-05 22:49 | 35.20592 | -113.38912 | 34562 ft | 466 kts | 128° |
| 2026-05-05 22:49 | 35.18777 | -113.35603 | 33775 ft | 470 kts | 128° |
| 2026-05-05 22:50 | 35.16965 | -113.32300 | 33018 ft | 473 kts | 128° |
| 2026-05-05 22:50 | 35.15696 | -113.29985 | 32528 ft | 476 kts | 128° |
| 2026-05-05 22:50 | 35.13866 | -113.26644 | 31762 ft | 481 kts | 128° |
| 2026-05-05 22:50 | 35.11992 | -113.23219 | 30985 ft | 486 kts | 127° |
| 2026-05-05 22:51 | 35.10143 | -113.19830 | 30537 ft | 479 kts | 127° |
| 2026-05-05 22:51 | 35.08311 | -113.16468 | 30102 ft | 474 kts | 127° |
| 2026-05-05 22:51 | 35.06486 | -113.13123 | 29610 ft | 469 kts | 127° |
| 2026-05-05 22:51 | 35.04683 | -113.09839 | 29158 ft | 463 kts | 127° |
| 2026-05-05 22:52 | 35.02889 | -113.06583 | 29020 ft | 456 kts | 127° |
| 2026-05-05 22:52 | 34.99311 | -113.00127 | 28977 ft | 461 kts | 128° |
| 2026-05-05 22:53 | 34.95715 | -112.93655 | 28973 ft | 461 kts | 128° |
| 2026-05-05 22:53 | 34.92089 | -112.87136 | 28974 ft | 464 kts | 129° |
| 2026-05-05 22:54 | 34.88486 | -112.80665 | 28978 ft | 464 kts | 129° |
| 2026-05-05 22:54 | 34.84844 | -112.74129 | 28972 ft | 465 kts | 129° |
| 2026-05-05 22:55 | 34.81195 | -112.67604 | 28981 ft | 467 kts | 130° |
| 2026-05-05 22:55 | 34.77560 | -112.61107 | 28967 ft | 466 kts | 130° |
| 2026-05-05 22:56 | 34.73881 | -112.54548 | 28975 ft | 469 kts | 131° |
| 2026-05-05 22:56 | 34.70023 | -112.48267 | 28917 ft | 462 kts | 138° |
| 2026-05-05 22:56 | 34.67803 | -112.45497 | 28456 ft | 455 kts | 143° |
| 2026-05-05 22:57 | 34.65442 | -112.42978 | 28045 ft | 445 kts | 146° |
| 2026-05-05 22:57 | 34.63071 | -112.40639 | 27491 ft | 439 kts | 147° |
| 2026-05-05 22:57 | 34.60676 | -112.38353 | 26885 ft | 433 kts | 146° |
| 2026-05-05 22:57 | 34.58345 | -112.36150 | 26272 ft | 425 kts | 145° |
| 2026-05-05 22:58 | 34.56009 | -112.33939 | 25566 ft | 418 kts | 144° |
| 2026-05-05 22:58 | 34.53769 | -112.31807 | 25113 ft | 404 kts | 147° |
| 2026-05-05 22:58 | 34.51582 | -112.29715 | 24443 ft | 396 kts | 144° |
| 2026-05-05 22:58 | 34.49445 | -112.27657 | 23784 ft | 388 kts | 144° |
| 2026-05-05 22:59 | 34.47360 | -112.25670 | 22730 ft | 388 kts | 147° |
| 2026-05-05 22:59 | 34.45106 | -112.23882 | 21996 ft | 379 kts | 154° |
| 2026-05-05 22:59 | 34.42767 | -112.22632 | 21747 ft | 364 kts | 164° |
| 2026-05-05 22:59 | 34.40344 | -112.21796 | 21450 ft | 352 kts | 169° |